Time;durP1;ratioP1;P1;durP2;ratioP2;P2;SDS_P1;SDS_P2;PMS_P1;PMS_P2;Temp;Humidity;BMP_temperature;BMP_pressure;BME280_temperature;BME280_humidity;BME280_pressure;Samples;Min_cycle;Max_cycle;Signal;HPM_P1;HPM_P2
2023/01/29 00:00:09;;;;;;;9.38;6.55;;;5.70;79.50;;;;;;5077323;28;20029;-78
2023/01/29 00:02:38;;;;;;;8.73;6.63;;;5.70;79.50;;;;;;5094999;28;20032;-78
2023/01/29 00:05:05;;;;;;;8.88;6.35;;;5.70;79.50;;;;;;5093898;28;20468;-79
2023/01/29 00:07:31;;;;;;;8.57;6.13;;;5.70;79.50;;;;;;5077266;28;20028;-79
2023/01/29 00:09:57;;;;;;;10.23;7.35;;;5.70;79.50;;;;;;5077176;28;20173;-79
2023/01/29 00:12:22;;;;;;;9.40;7.03;;;5.70;79.50;;;;;;5060457;28;20032;-78
2023/01/29 00:14:48;;;;;;;8.85;6.75;;;5.70;79.50;;;;;;5059978;28;20040;-79
2023/01/29 00:17:14;;;;;;;9.50;6.93;;;5.70;79.50;;;;;;5094833;28;20024;-79
2023/01/29 00:19:40;;;;;;;8.85;6.53;;;5.70;79.50;;;;;;5060706;28;20108;-79
2023/01/29 00:22:05;;;;;;;9.35;6.88;;;5.70;79.50;;;;;;5077379;28;20032;-79
2023/01/29 00:24:31;;;;;;;7.90;6.28;;;5.70;79.60;;;;;;5076553;28;20053;-79
2023/01/29 00:26:57;;;;;;;9.30;6.90;;;5.70;79.60;;;;;;5093584;28;20075;-78
2023/01/29 00:29:22;;;;;;;8.88;6.53;;;5.70;79.60;;;;;;5076822;28;20423;-78
2023/01/29 00:31:48;;;;;;;8.68;6.68;;;5.70;79.60;;;;;;5076107;28;20104;-79
2023/01/29 00:34:15;;;;;;;8.88;6.75;;;5.70;79.60;;;;;;5076260;28;20491;-78
2023/01/29 00:36:43;;;;;;;9.27;6.82;;;5.70;79.60;;;;;;5076212;28;20036;-79
2023/01/29 00:39:11;;;;;;;8.43;6.57;;;5.60;79.50;;;;;;5076817;28;20059;-78
2023/01/29 00:47:29;;;;;;;8.45;6.47;;;5.60;79.50;;;;;;5093483;28;20111;-79
2023/01/29 00:49:52;;;;;;;8.02;6.18;;;5.60;79.50;;;;;;5094168;28;20028;-79
2023/01/29 00:52:23;;;;;;;9.25;7.03;;;5.60;79.50;;;;;;5076949;28;20024;-79
2023/01/29 00:54:53;;;;;;;9.15;7.07;;;5.60;79.60;;;;;;5076402;28;20040;-79
2023/01/29 00:57:19;;;;;;;10.27;7.32;;;5.60;79.60;;;;;;5076254;28;20464;-78
2023/01/29 00:59:45;;;;;;;8.55;6.45;;;5.60;79.60;;;;;;5059456;28;20024;-79
2023/01/29 01:04:55;;;;;;;10.85;8.05;;;5.60;79.60;;;;;;5094646;28;20063;-78
2023/01/29 01:07:22;;;;;;;9.43;7.10;;;5.60;80.20;;;;;;5093241;28;20089;-78
2023/01/29 01:12:33;;;;;;;9.40;6.82;;;5.60;79.60;;;;;;5075955;28;20377;-78
2023/01/29 01:14:59;;;;;;;9.63;7.03;;;5.60;79.60;;;;;;5075618;28;20028;-78
2023/01/29 01:17:25;;;;;;;9.85;7.00;;;5.60;79.60;;;;;;5075257;28;20035;-78
2023/01/29 01:19:51;;;;;;;9.65;7.60;;;5.60;79.60;;;;;;5093608;28;20024;-79
2023/01/29 01:22:16;;;;;;;8.38;6.32;;;5.60;79.60;;;;;;5075619;28;20032;-79
2023/01/29 01:24:43;;;;;;;9.02;6.78;;;5.60;79.60;;;;;;5092492;28;20020;-79
2023/01/29 01:27:09;;;;;;;9.20;6.90;;;5.60;79.60;;;;;;5076230;28;20036;-79
2023/01/29 01:29:35;;;;;;;10.07;7.30;;;5.60;79.60;;;;;;5058869;28;20461;-79
2023/01/29 01:32:01;;;;;;;9.45;7.22;;;5.60;79.60;;;;;;5075695;28;20089;-78
2023/01/29 01:34:27;;;;;;;9.27;6.78;;;5.60;79.60;;;;;;5075675;28;20024;-79
2023/01/29 01:36:57;;;;;;;10.10;7.07;;;5.60;79.60;;;;;;5075545;28;20032;-78
2023/01/29 01:39:23;;;;;;;9.85;7.05;;;5.50;79.60;;;;;;5075179;28;20454;-78
2023/01/29 01:41:52;;;;;;;10.75;7.55;;;5.60;79.70;;;;;;5075304;28;20031;-78
2023/01/29 01:44:55;;;;;;;10.55;7.68;;;5.60;79.60;;;;;;5075302;28;20042;-79
2023/01/29 01:47:36;;;;;;;9.70;7.03;;;5.60;79.70;;;;;;5075692;28;20036;-77
2023/01/29 01:50:26;;;;;;;10.35;6.97;;;5.50;79.60;;;;;;5093982;28;20039;-78
2023/01/29 01:52:58;;;;;;;9.00;6.90;;;5.50;79.60;;;;;;5068357;28;20169;-78
2023/01/29 01:55:27;;;;;;;10.18;7.22;;;5.50;79.70;;;;;;5094999;28;20115;-79
2023/01/29 01:57:58;;;;;;;10.02;7.20;;;5.50;79.70;;;;;;5078741;28;20105;-78
2023/01/29 02:00:25;;;;;;;11.00;8.15;;;5.50;79.70;;;;;;5079450;28;20028;-78
2023/01/29 02:11:35;;;;;;;9.10;6.55;;;5.50;79.60;;;;;;5079663;28;20059;-79
2023/01/29 02:14:01;;;;;;;9.48;6.90;;;5.40;79.60;;;;;;5062600;28;20032;-79
2023/01/29 02:16:26;;;;;;;10.90;8.10;;;5.40;79.60;;;;;;5097095;28;20032;-79
2023/01/29 02:18:54;;;;;;;11.50;8.00;;;5.40;79.70;;;;;;5062339;28;20028;-79
2023/01/29 02:21:51;;;;;;;11.10;7.78;;;5.40;79.70;;;;;;5095831;28;20036;-79
2023/01/29 02:24:50;;;;;;;11.30;7.95;;;5.50;79.80;;;;;;5078353;28;20067;-79
2023/01/29 02:27:23;;;;;;;11.57;8.27;;;5.40;79.80;;;;;;5096963;28;20039;-78
2023/01/29 02:30:22;;;;;;;10.98;7.35;;;5.40;79.70;;;;;;5097390;28;20038;-79
2023/01/29 02:32:57;;;;;;;11.07;7.60;;;5.50;79.80;;;;;;5078999;28;20073;-78
2023/01/29 02:35:30;;;;;;;9.80;7.55;;;5.40;79.70;;;;;;5079316;28;20032;-78
2023/01/29 02:38:25;;;;;;;10.25;7.65;;;5.40;79.80;;;;;;5078134;28;20059;-79
2023/01/29 02:40:57;;;;;;;10.70;7.82;;;5.40;79.70;;;;;;5062140;28;20036;-77
2023/01/29 02:43:46;;;;;;;11.05;8.02;;;5.40;79.70;;;;;;5079224;28;20031;-79
2023/01/29 02:46:40;;;;;;;9.50;7.13;;;5.40;79.70;;;;;;5061825;28;20035;-79
2023/01/29 02:49:33;;;;;;;10.88;7.25;;;5.40;79.70;;;;;;5061738;28;20076;-78
2023/01/29 02:52:20;;;;;;;11.68;7.82;;;5.40;79.70;;;;;;5096853;28;20035;-79
2023/01/29 02:54:52;;;;;;;10.48;7.60;;;5.40;79.80;;;;;;5078270;28;20036;-79
2023/01/29 02:57:39;;;;;;;10.38;7.53;;;5.40;79.70;;;;;;5078379;28;20107;-78
2023/01/29 03:00:21;;;;;;;11.70;8.35;;;5.40;79.80;;;;;;5096449;28;20024;-77
2023/01/29 03:03:08;;;;;;;11.30;8.13;;;5.40;79.80;;;;;;5078771;28;20453;-79
2023/01/29 03:05:43;;;;;;;10.95;7.95;;;5.30;79.70;;;;;;5061318;28;20027;-79
2023/01/29 03:08:15;;;;;;;10.10;7.10;;;5.40;79.70;;;;;;5077866;28;20043;-79
2023/01/29 03:10:52;;;;;;;10.48;7.70;;;5.30;79.70;;;;;;5078592;28;20055;-79
2023/01/29 03:13:33;;;;;;;10.80;8.18;;;5.30;79.70;;;;;;5078173;28;20020;-78
2023/01/29 03:16:05;;;;;;;12.27;9.32;;;5.40;79.80;;;;;;5077984;28;20457;-78
2023/01/29 03:18:45;;;;;;;10.60;7.68;;;5.30;79.70;;;;;;5077614;28;20024;-77
2023/01/29 03:33:08;;;;;;;11.98;8.77;;;5.30;79.70;;;;;;5072089;28;20040;-79
2023/01/29 03:35:39;;;;;;;10.93;7.90;;;5.30;79.70;;;;;;5077382;28;20094;-79
2023/01/29 03:38:11;;;;;;;10.52;7.82;;;5.30;79.70;;;;;;5077310;28;20044;-78
2023/01/29 03:40:55;;;;;;;12.35;8.85;;;5.30;79.70;;;;;;5077156;28;20058;-78
2023/01/29 03:43:46;;;;;;;11.93;8.38;;;5.30;79.70;;;;;;5060953;28;20028;-78
2023/01/29 03:46:44;;;;;;;12.43;8.60;;;5.30;79.70;;;;;;5077586;28;20162;-78
2023/01/29 03:49:13;;;;;;;10.35;7.88;;;5.30;79.70;;;;;;5077450;28;20496;-78
2023/01/29 03:52:02;;;;;;;10.50;7.88;;;5.30;79.70;;;;;;5076986;28;20024;-79
2023/01/29 03:55:09;;;;;;;10.70;7.68;;;5.30;79.70;;;;;;5060358;28;20024;-79
2023/01/29 03:57:54;;;;;;;10.73;7.85;;;5.30;79.80;;;;;;5077378;28;20028;-78
2023/01/29 04:00:54;;;;;;;11.13;7.97;;;5.30;79.70;;;;;;5077663;28;20032;-79
2023/01/29 04:03:23;;;;;;;10.68;7.97;;;5.30;79.70;;;;;;5077098;28;20028;-79
2023/01/29 04:06:21;;;;;;;11.88;8.48;;;5.20;79.70;;;;;;5076756;28;20031;-79
2023/01/29 04:09:13;;;;;;;11.60;7.90;;;5.20;79.80;;;;;;5061714;28;20093;-78
2023/01/29 04:11:48;;;;;;;10.57;8.00;;;5.20;79.70;;;;;;5060795;28;20035;-79
2023/01/29 04:14:15;;;;;;;11.60;8.35;;;5.30;79.70;;;;;;5076918;28;20054;-80
2023/01/29 04:16:47;;;;;;;12.18;8.35;;;5.30;79.70;;;;;;5076812;28;20122;-78
2023/01/29 04:19:18;;;;;;;10.95;8.43;;;5.30;79.70;;;;;;5076540;28;20084;-80
2023/01/29 04:21:45;;;;;;;10.98;8.18;;;5.30;79.70;;;;;;5077158;28;20028;-79
2023/01/29 04:24:13;;;;;;;12.05;9.25;;;5.30;79.80;;;;;;5059994;28;20077;-79
2023/01/29 04:27:06;;;;;;;11.63;8.93;;;5.30;80.40;;;;;;5059771;28;20040;-79
2023/01/29 04:29:42;;;;;;;11.50;8.52;;;5.30;79.80;;;;;;5077153;28;20093;-79
2023/01/29 04:32:30;;;;;;;10.80;7.53;;;5.20;79.70;;;;;;5076657;28;20062;-78
2023/01/29 04:35:14;;;;;;;10.63;7.68;;;5.20;79.70;;;;;;5060133;28;20039;-79
2023/01/29 04:38:02;;;;;;;11.57;8.80;;;5.20;79.70;;;;;;5076177;28;20028;-79
2023/01/29 04:40:42;;;;;;;10.60;8.15;;;5.30;79.80;;;;;;5076557;28;20020;-79
2023/01/29 04:43:20;;;;;;;11.30;7.65;;;5.20;79.70;;;;;;5076911;28;20035;-80
2023/01/29 04:45:48;;;;;;;10.65;8.38;;;5.30;79.80;;;;;;5094106;28;20047;-79
2023/01/29 04:48:24;;;;;;;11.20;8.48;;;5.20;79.70;;;;;;5094283;28;20077;-79
2023/01/29 04:51:11;;;;;;;12.48;9.10;;;5.20;79.70;;;;;;5076124;28;20032;-79
2023/01/29 04:53:47;;;;;;;11.52;8.43;;;5.20;79.70;;;;;;5076490;28;20384;-79
2023/01/29 04:56:39;;;;;;;11.93;8.75;;;5.20;79.70;;;;;;5094485;28;20469;-79
2023/01/29 04:59:13;;;;;;;11.70;8.60;;;5.20;79.70;;;;;;5059364;28;20065;-79
2023/01/29 05:01:39;;;;;;;12.68;9.27;;;5.20;79.70;;;;;;5076492;28;20028;-79
2023/01/29 05:04:10;;;;;;;13.48;9.55;;;5.20;79.70;;;;;;5076249;28;20021;-79
2023/01/29 05:06:37;;;;;;;11.95;9.00;;;5.20;79.70;;;;;;5076272;28;20345;-79
2023/01/29 05:09:03;;;;;;;13.20;9.32;;;5.20;79.70;;;;;;5094545;28;20024;-78
2023/01/29 05:11:31;;;;;;;12.18;8.80;;;5.20;79.70;;;;;;5075617;28;20031;-79
2023/01/29 05:14:00;;;;;;;13.48;9.63;;;5.20;79.70;;;;;;5094343;28;20114;-80
2023/01/29 05:16:40;;;;;;;12.85;9.20;;;5.20;79.70;;;;;;5076614;28;20020;-80
2023/01/29 05:19:08;;;;;;;11.10;8.05;;;5.20;79.80;;;;;;5076039;28;20035;-78
2023/01/29 05:21:34;;;;;;;12.15;9.02;;;5.20;79.80;;;;;;5075791;28;20024;-78
2023/01/29 05:24:24;;;;;;;13.63;9.95;;;5.20;79.70;;;;;;5075650;28;20040;-79
2023/01/29 05:29:38;;;;;;;12.43;9.02;;;5.20;79.70;;;;;;5095296;28;20445;-79
2023/01/29 05:32:04;;;;;;;12.57;9.20;;;5.20;79.70;;;;;;5082068;28;20031;-79
2023/01/29 05:34:30;;;;;;;11.90;8.73;;;5.20;79.70;;;;;;5082308;28;20035;-79
2023/01/29 05:36:55;;;;;;;12.43;8.23;;;5.20;79.70;;;;;;5082122;28;20028;-78
2023/01/29 05:39:21;;;;;;;14.68;9.80;;;5.20;79.70;;;;;;5065575;28;20056;-79
2023/01/29 05:41:47;;;;;;;13.07;9.15;;;5.20;79.70;;;;;;5099291;28;20490;-79
2023/01/29 05:44:13;;;;;;;12.70;9.18;;;5.20;79.70;;;;;;5082614;28;20032;-78
2023/01/29 05:46:38;;;;;;;11.90;8.63;;;5.20;79.70;;;;;;5082520;28;20043;-78
2023/01/29 05:49:04;;;;;;;11.23;8.43;;;5.20;79.70;;;;;;5065673;28;20032;-78
2023/01/29 05:51:30;;;;;;;13.73;9.52;;;5.20;79.70;;;;;;5082145;28;20039;-79
2023/01/29 05:53:56;;;;;;;12.52;9.27;;;5.20;79.70;;;;;;5100329;28;20102;-78
2023/01/29 05:56:22;;;;;;;12.88;9.35;;;5.20;79.70;;;;;;5100373;28;20062;-79
2023/01/29 05:58:48;;;;;;;12.13;9.20;;;5.20;79.70;;;;;;5082166;28;20023;-78
2023/01/29 06:01:16;;;;;;;11.90;8.43;;;5.20;79.70;;;;;;5082170;28;20028;-79
2023/01/29 06:03:41;;;;;;;11.65;8.57;;;5.20;79.70;;;;;;5082101;28;20149;-79
2023/01/29 06:06:08;;;;;;;13.05;8.80;;;5.20;79.70;;;;;;5065308;28;20555;-79
2023/01/29 06:08:33;;;;;;;13.13;9.68;;;5.20;79.70;;;;;;5082062;28;20032;-77
2023/01/29 06:10:59;;;;;;;12.70;8.65;;;5.20;79.70;;;;;;5082678;28;20495;-78
2023/01/29 06:13:25;;;;;;;12.15;8.80;;;5.20;79.70;;;;;;5099821;28;20081;-78
2023/01/29 06:15:50;;;;;;;13.23;9.82;;;5.20;79.70;;;;;;5065923;28;20051;-78
2023/01/29 06:18:16;;;;;;;11.85;9.05;;;5.20;80.40;;;;;;5099797;28;20492;-78
2023/01/29 06:20:42;;;;;;;13.43;9.57;;;5.20;79.70;;;;;;5081791;28;20024;-79
2023/01/29 06:23:08;;;;;;;12.80;9.75;;;5.20;79.70;;;;;;5099913;28;20031;-79
2023/01/29 06:25:34;;;;;;;13.52;10.07;;;5.20;79.80;;;;;;5100672;28;20031;-79
2023/01/29 06:27:59;;;;;;;12.50;9.45;;;5.20;79.70;;;;;;5099963;28;20110;-79
2023/01/29 06:30:27;;;;;;;12.63;9.85;;;5.20;79.70;;;;;;5081861;28;20070;-78
2023/01/29 06:32:57;;;;;;;13.63;9.63;;;5.20;80.00;;;;;;5081597;28;20472;-79
2023/01/29 06:35:24;;;;;;;13.82;9.77;;;5.20;79.80;;;;;;5100010;28;20028;-78
2023/01/29 06:37:50;;;;;;;12.43;9.52;;;5.20;79.80;;;;;;5099553;28;20056;-78
2023/01/29 06:40:16;;;;;;;13.00;9.95;;;5.20;79.80;;;;;;5100339;28;20564;-78
2023/01/29 06:42:42;;;;;;;12.50;9.27;;;5.20;80.30;;;;;;5095842;28;20099;-79
2023/01/29 06:45:09;;;;;;;12.35;8.98;;;5.20;79.80;;;;;;5062564;28;20082;-78
2023/01/29 06:47:34;;;;;;;13.40;9.63;;;5.20;79.80;;;;;;5078439;28;20119;-78
2023/01/29 06:50:00;;;;;;;13.82;9.63;;;5.20;79.70;;;;;;5062029;28;20060;-79
2023/01/29 06:52:27;;;;;;;11.32;9.05;;;5.20;79.70;;;;;;5078455;28;20032;-79
2023/01/29 06:54:56;;;;;;;12.40;9.10;;;5.20;79.70;;;;;;5095510;28;20068;-78
2023/01/29 06:57:21;;;;;;;12.02;9.45;;;5.20;79.70;;;;;;5095611;28;20028;-79
2023/01/29 06:59:47;;;;;;;13.75;9.77;;;5.20;79.70;;;;;;5078866;28;20032;-79
2023/01/29 07:02:14;;;;;;;13.43;9.60;;;5.20;79.70;;;;;;5077999;28;20028;-79
2023/01/29 07:04:41;;;;;;;12.63;9.48;;;5.20;79.70;;;;;;5096329;28;20115;-78
2023/01/29 07:07:12;;;;;;;13.00;9.82;;;5.20;79.70;;;;;;5078520;28;20043;-79
2023/01/29 07:09:39;;;;;;;12.23;9.15;;;5.20;79.70;;;;;;5078308;28;20032;-79
2023/01/29 07:12:05;;;;;;;13.15;8.88;;;5.20;79.70;;;;;;5078378;28;20471;-80
2023/01/29 07:14:31;;;;;;;11.88;9.05;;;5.20;79.70;;;;;;5078426;28;20034;-80
2023/01/29 07:16:57;;;;;;;12.35;9.70;;;5.20;79.70;;;;;;5061247;28;20032;-78
2023/01/29 07:19:23;;;;;;;12.32;9.13;;;5.20;79.70;;;;;;5078402;28;20028;-78
2023/01/29 07:21:48;;;;;;;12.77;9.35;;;5.20;79.70;;;;;;5096162;28;20028;-80
2023/01/29 07:24:15;;;;;;;13.30;9.82;;;5.20;79.70;;;;;;5077864;28;20182;-78
2023/01/29 07:26:41;;;;;;;12.43;8.98;;;5.20;79.70;;;;;;5096424;28;20039;-77
2023/01/29 07:29:07;;;;;;;14.00;9.98;;;5.20;79.70;;;;;;5077400;28;20085;-79
2023/01/29 07:31:32;;;;;;;13.30;9.60;;;5.20;79.70;;;;;;5077752;28;20020;-78
2023/01/29 07:33:58;;;;;;;12.48;9.20;;;5.20;79.70;;;;;;5077619;28;20032;-78
2023/01/29 07:36:24;;;;;;;12.82;8.75;;;5.20;79.70;;;;;;5060547;28;20089;-79
2023/01/29 07:38:50;;;;;;;12.52;8.95;;;5.20;79.70;;;;;;5077376;28;20040;-78
2023/01/29 07:41:16;;;;;;;11.73;8.95;;;5.20;79.70;;;;;;5077522;28;20031;-79
2023/01/29 07:43:44;;;;;;;13.48;9.77;;;5.20;79.70;;;;;;5077587;28;20040;-78
2023/01/29 07:46:10;;;;;;;12.93;9.85;;;5.20;79.70;;;;;;5060857;28;20032;-79
2023/01/29 07:48:36;;;;;;;12.80;9.80;;;5.20;79.70;;;;;;5077681;28;20029;-78
2023/01/29 07:51:02;;;;;;;12.93;9.27;;;5.20;79.70;;;;;;5077257;28;20028;-79
2023/01/29 07:53:28;;;;;;;12.63;9.27;;;5.20;79.70;;;;;;5077166;28;20024;-79
2023/01/29 07:55:54;;;;;;;13.45;9.73;;;5.20;79.70;;;;;;5095572;28;20024;-79
2023/01/29 07:58:20;;;;;;;12.43;9.45;;;5.20;79.70;;;;;;5060535;28;20028;-79
2023/01/29 08:00:46;;;;;;;11.88;9.10;;;5.20;79.70;;;;;;5060511;28;20452;-79
2023/01/29 08:03:15;;;;;;;13.98;9.90;;;5.20;79.70;;;;;;5060508;28;20097;-79
2023/01/29 08:05:42;;;;;;;13.40;9.55;;;5.20;79.80;;;;;;5076730;28;20032;-79
2023/01/29 08:08:08;;;;;;;12.32;9.23;;;5.20;79.70;;;;;;5095026;28;20040;-78
2023/01/29 08:10:35;;;;;;;13.68;9.82;;;5.20;79.70;;;;;;5077736;28;20131;-79
2023/01/29 08:13:01;;;;;;;11.32;8.60;;;5.20;79.70;;;;;;5077063;28;20028;-78
2023/01/29 08:15:27;;;;;;;13.20;9.63;;;5.20;79.70;;;;;;5095083;28;20031;-78
2023/01/29 08:17:54;;;;;;;13.15;9.77;;;5.20;79.70;;;;;;5077202;28;20024;-78
2023/01/29 08:20:21;;;;;;;13.05;10.27;;;5.30;79.80;;;;;;5077383;28;20028;-80
2023/01/29 08:22:47;;;;;;;12.73;9.45;;;5.20;79.80;;;;;;5060820;28;20081;-79
2023/01/29 08:25:13;;;;;;;11.18;8.65;;;5.20;79.70;;;;;;5076991;28;20115;-79
2023/01/29 08:27:39;;;;;;;12.98;9.27;;;5.20;79.70;;;;;;5096072;28;20039;-79
2023/01/29 08:30:07;;;;;;;13.40;9.63;;;5.20;79.70;;;;;;5076903;28;20508;-78
2023/01/29 08:32:33;;;;;;;10.68;8.18;;;5.30;79.70;;;;;;5076466;28;20376;-78
2023/01/29 08:34:58;;;;;;;12.63;9.55;;;5.30;79.80;;;;;;5059454;28;20043;-78
2023/01/29 08:37:24;;;;;;;13.00;9.75;;;5.20;79.70;;;;;;5076845;28;20020;-78
2023/01/29 08:39:50;;;;;;;12.55;9.43;;;5.30;79.80;;;;;;5076029;28;20384;-79
2023/01/29 08:42:15;;;;;;;12.27;9.60;;;5.30;79.80;;;;;;5076079;28;20109;-78
2023/01/29 08:44:41;;;;;;;14.23;10.00;;;5.20;79.70;;;;;;5093691;28;20479;-77
2023/01/29 08:47:07;;;;;;;12.05;9.50;;;5.30;79.70;;;;;;5075729;28;20042;-77
2023/01/29 08:49:32;;;;;;;13.57;9.88;;;5.30;79.80;;;;;;5092662;28;20028;-77
2023/01/29 08:51:58;;;;;;;13.30;9.80;;;5.20;79.70;;;;;;5075477;28;20027;-78
2023/01/29 08:54:24;;;;;;;14.20;9.88;;;5.30;79.80;;;;;;5059456;28;20036;-78
2023/01/29 08:56:50;;;;;;;11.70;8.93;;;5.30;79.70;;;;;;5075509;28;20429;-78
2023/01/29 08:59:16;;;;;;;12.75;9.48;;;5.30;79.70;;;;;;5076168;28;20028;-77
2023/01/29 09:01:42;;;;;;;14.32;10.40;;;5.30;79.70;;;;;;5059096;28;20419;-78
2023/01/29 09:04:08;;;;;;;13.60;10.10;;;5.30;79.80;;;;;;5058832;28;20028;-77
2023/01/29 09:06:34;;;;;;;13.82;9.88;;;5.30;79.70;;;;;;5041971;28;20055;-79
2023/01/29 09:09:00;;;;;;;14.32;10.50;;;5.30;79.70;;;;;;5075669;28;20028;-77
2023/01/29 09:11:26;;;;;;;11.80;9.02;;;5.30;79.70;;;;;;5094190;28;20020;-77
2023/01/29 09:13:51;;;;;;;12.27;9.45;;;5.40;79.80;;;;;;5059181;28;20043;-78
2023/01/29 09:16:17;;;;;;;12.43;8.70;;;5.30;79.70;;;;;;5075480;28;20046;-78
2023/01/29 09:18:43;;;;;;;11.57;8.85;;;5.40;79.80;;;;;;5075494;28;20036;-79
2023/01/29 09:21:10;;;;;;;13.55;9.73;;;5.40;79.80;;;;;;5093513;28;20081;-81
2023/01/29 09:23:35;;;;;;;11.50;8.95;;;5.30;79.70;;;;;;5075782;28;20061;-79
2023/01/29 09:26:01;;;;;;;13.52;9.98;;;5.40;79.80;;;;;;5094192;28;20032;-77
2023/01/29 09:28:27;;;;;;;12.63;9.27;;;5.40;79.80;;;;;;5093222;28;20081;-78
2023/01/29 09:30:53;;;;;;;12.15;9.82;;;5.40;79.80;;;;;;5075644;28;20028;-78
2023/01/29 09:33:19;;;;;;;13.25;9.77;;;5.40;79.80;;;;;;5058550;28;20430;-78
2023/01/29 09:35:45;;;;;;;12.35;8.98;;;5.40;79.80;;;;;;5075237;28;20492;-78
2023/01/29 09:38:12;;;;;;;11.32;8.50;;;5.40;79.80;;;;;;5075056;28;20044;-78
2023/01/29 09:41:22;;;;;;;12.18;9.57;;;5.40;79.80;;;;;;5059022;28;20051;-79
2023/01/29 09:43:54;;;;;;;10.95;8.15;;;5.40;79.80;;;;;;5058697;28;20122;-80
2023/01/29 09:46:30;;;;;;;12.25;8.65;;;5.40;79.80;;;;;;5075331;28;20102;-77
2023/01/29 09:49:09;;;;;;;11.63;8.98;;;5.40;79.80;;;;;;5075286;28;20032;-77
2023/01/29 09:51:47;;;;;;;11.45;8.93;;;5.50;79.80;;;;;;5093059;28;20027;-78
2023/01/29 09:54:43;;;;;;;11.50;8.52;;;5.50;79.80;;;;;;5092860;28;20039;-77
2023/01/29 09:57:18;;;;;;;14.15;9.40;;;5.50;79.80;;;;;;5075915;28;20355;-78
2023/01/29 09:59:43;;;;;;;12.02;9.35;;;5.50;79.80;;;;;;5093679;28;20093;-78
2023/01/29 10:02:18;;;;;;;10.32;7.85;;;5.50;79.80;;;;;;5075048;28;20012;-79
2023/01/29 10:04:49;;;;;;;10.90;8.48;;;5.50;79.90;;;;;;5092908;28;20032;-78
2023/01/29 10:07:15;;;;;;;11.32;9.05;;;5.50;79.80;;;;;;5075758;28;20103;-80
2023/01/29 10:09:59;;;;;;;11.82;8.98;;;5.50;79.80;;;;;;5093162;28;20442;-78
2023/01/29 10:12:51;;;;;;;10.77;8.27;;;5.50;79.80;;;;;;5075929;28;20035;-80
2023/01/29 10:15:41;;;;;;;11.25;8.45;;;5.60;79.90;;;;;;5074811;28;20040;-79
2023/01/29 10:18:34;;;;;;;11.07;8.38;;;5.60;79.90;;;;;;5078845;28;20169;-79
2023/01/29 10:21:12;;;;;;;11.50;8.52;;;5.60;79.90;;;;;;5062474;28;20017;-80
2023/01/29 10:23:52;;;;;;;12.38;8.85;;;5.60;79.90;;;;;;5062315;28;20032;-79
2023/01/29 10:26:22;;;;;;;13.88;9.95;;;5.60;79.80;;;;;;5074823;28;20392;-78
2023/01/29 10:28:51;;;;;;;12.90;10.30;;;5.60;79.80;;;;;;5078695;28;20491;-78
2023/01/29 10:31:23;;;;;;;12.15;9.45;;;5.60;79.80;;;;;;5097012;28;20089;-78
2023/01/29 10:34:02;;;;;;;12.45;9.77;;;5.70;79.90;;;;;;5078569;28;20503;-78
2023/01/29 10:36:37;;;;;;;11.85;8.77;;;5.70;79.90;;;;;;5096740;28;20437;-78
2023/01/29 10:39:03;;;;;;;11.63;9.02;;;5.70;79.80;;;;;;5078710;28;20051;-77
2023/01/29 10:41:48;;;;;;;11.73;9.05;;;5.70;79.80;;;;;;5061812;28;20057;-78
2023/01/29 10:45:09;;;;;;;12.05;8.70;;;5.70;79.90;;;;;;5078760;28;20493;-79
2023/01/29 10:47:53;;;;;;;11.95;9.10;;;5.70;79.80;;;;;;4995066;28;20124;-79
2023/01/29 10:50:28;;;;;;;11.88;9.10;;;5.70;79.70;;;;;;5097724;28;20032;-79
2023/01/29 10:53:28;;;;;;;13.18;9.98;;;5.80;79.70;;;;;;5061229;28;20345;-79
2023/01/29 10:56:12;;;;;;;10.93;8.02;;;5.80;79.80;;;;;;5095864;28;20026;-79
2023/01/29 10:59:04;;;;;;;10.57;8.45;;;5.70;79.70;;;;;;5078216;28;20070;-79
2023/01/29 11:01:30;;;;;;;11.10;8.18;;;5.80;79.70;;;;;;5087632;28;20078;-79
2023/01/29 11:04:00;;;;;;;10.27;8.35;;;5.80;79.70;;;;;;5078106;28;20048;-80
2023/01/29 11:06:32;;;;;;;11.15;9.07;;;5.80;79.80;;;;;;5078937;28;20063;-80
2023/01/29 11:09:35;;;;;;;11.80;8.93;;;5.80;79.80;;;;;;5078198;28;20020;-79
2023/01/29 11:12:12;;;;;;;11.68;8.68;;;5.80;79.80;;;;;;5078427;28;20437;-80
2023/01/29 11:14:52;;;;;;;10.85;8.52;;;5.90;79.70;;;;;;5077589;28;20028;-79
2023/01/29 11:17:22;;;;;;;11.30;8.70;;;5.90;79.80;;;;;;5078636;28;20032;-79
2023/01/29 11:19:52;;;;;;;11.45;9.15;;;5.90;79.70;;;;;;5077943;28;20528;-79
2023/01/29 11:22:23;;;;;;;10.88;8.80;;;5.90;79.70;;;;;;5077265;28;20058;-77
2023/01/29 11:25:08;;;;;;;11.52;9.15;;;5.90;79.70;;;;;;5077009;28;20043;-78
2023/01/29 11:27:46;;;;;;;11.63;8.80;;;5.90;79.70;;;;;;5076639;28;20508;-77
2023/01/29 11:30:34;;;;;;;11.18;8.45;;;5.90;79.70;;;;;;5095504;28;20108;-79
2023/01/29 11:33:22;;;;;;;11.57;8.95;;;6.00;79.70;;;;;;5077159;28;20016;-81
2023/01/29 11:35:48;;;;;;;10.60;7.93;;;5.90;79.60;;;;;;5095385;28;20077;-79
2023/01/29 11:38:25;;;;;;;10.23;8.23;;;6.00;79.60;;;;;;5093931;28;20479;-79
2023/01/29 11:40:52;;;;;;;10.40;8.52;;;6.00;79.60;;;;;;5077354;28;20030;-79
2023/01/29 11:43:31;;;;;;;11.38;8.77;;;6.00;79.60;;;;;;5077472;28;20112;-79
2023/01/29 11:46:03;;;;;;;10.65;8.43;;;6.00;79.60;;;;;;5077118;28;20028;-80
2023/01/29 11:48:44;;;;;;;11.75;9.07;;;6.00;79.60;;;;;;5095247;28;20038;-80
2023/01/29 11:51:20;;;;;;;10.63;8.25;;;6.10;79.70;;;;;;5077016;28;20028;-80
2023/01/29 11:53:54;;;;;;;11.43;8.90;;;6.10;79.70;;;;;;5095242;28;20025;-78
2023/01/29 11:56:28;;;;;;;10.40;8.30;;;6.10;79.60;;;;;;5077446;28;20024;-78
2023/01/29 11:58:56;;;;;;;10.98;8.13;;;6.10;79.60;;;;;;5077200;28;20031;-79
2023/01/29 12:01:37;;;;;;;10.57;8.18;;;6.10;79.60;;;;;;5077715;28;20024;-86
2023/01/29 12:04:19;;;;;;;10.90;8.65;;;6.10;79.70;;;;;;5077006;28;20156;-77
2023/01/29 12:06:50;;;;;;;11.63;8.45;;;6.10;79.70;;;;;;5077214;28;20040;-79
2023/01/29 12:09:28;;;;;;;10.40;8.63;;;6.10;79.60;;;;;;5095752;28;20028;-79
2023/01/29 12:11:54;;;;;;;9.63;7.88;;;6.20;79.70;;;;;;5077297;28;20028;-80
2023/01/29 12:14:33;;;;;;;10.63;8.68;;;6.20;79.60;;;;;;5076920;28;20032;-80
2023/01/29 12:17:02;;;;;;;10.68;8.55;;;6.20;79.70;;;;;;5077016;28;20039;-80
2023/01/29 12:19:44;;;;;;;10.80;8.60;;;6.20;79.60;;;;;;5076798;28;20039;-80
2023/01/29 12:22:26;;;;;;;11.05;8.60;;;6.20;79.60;;;;;;5076825;28;20085;-79
2023/01/29 12:25:15;;;;;;;11.20;8.38;;;6.30;79.60;;;;;;5077042;28;20370;-79
2023/01/29 12:27:48;;;;;;;10.82;8.65;;;6.30;79.60;;;;;;5094874;28;20077;-80
2023/01/29 12:30:23;;;;;;;10.32;8.52;;;6.30;79.50;;;;;;5095351;28;20035;-79
2023/01/29 12:33:07;;;;;;;;;;;6.30;79.50;;;;;;5060188;28;20035;-78
2023/01/29 12:35:55;;;;;;;9.25;7.18;;;6.30;79.50;;;;;;5076763;28;19908;-80
2023/01/29 12:38:22;;;;;;;8.88;7.20;;;6.30;79.40;;;;;;5076454;28;20048;-78
2023/01/29 12:41:06;;;;;;;10.48;8.63;;;6.30;79.40;;;;;;5075628;28;20035;-79
2023/01/29 12:43:48;;;;;;;10.70;8.77;;;6.30;79.40;;;;;;5094188;28;20024;-79
2023/01/29 12:46:20;;;;;;;9.43;7.75;;;6.30;79.50;;;;;;5076508;28;20028;-79
2023/01/29 12:48:48;;;;;;;10.82;8.85;;;6.40;79.50;;;;;;5076498;28;20050;-80
2023/01/29 12:51:20;;;;;;;10.88;8.57;;;6.40;79.50;;;;;;5076041;28;20024;-80
2023/01/29 12:53:59;;;;;;;11.68;9.25;;;6.40;79.50;;;;;;5076228;28;20028;-80
2023/01/29 12:56:30;;;;;;;11.50;9.23;;;6.40;79.40;;;;;;5094600;28;20040;-79
2023/01/29 12:58:59;;;;;;;11.90;9.45;;;6.40;79.40;;;;;;5076437;28;20166;-79
2023/01/29 13:01:37;;;;;;;12.07;9.02;;;6.40;79.40;;;;;;5076127;28;20024;-80
2023/01/29 13:04:10;;;;;;;11.48;9.23;;;6.50;79.40;;;;;;5075633;28;20028;-79
2023/01/29 13:06:42;;;;;;;11.85;9.50;;;6.50;79.40;;;;;;5093736;28;20035;-80
2023/01/29 13:09:13;;;;;;;11.30;8.65;;;6.50;79.40;;;;;;5076309;28;20036;-80
2023/01/29 13:12:01;;;;;;;11.18;9.25;;;6.50;79.30;;;;;;5075570;28;20467;-80
2023/01/29 13:15:05;;;;;;;11.20;8.93;;;6.50;79.30;;;;;;5077924;28;20060;-81
2023/01/29 13:17:47;;;;;;;11.02;9.13;;;6.60;79.30;;;;;;5031517;28;20033;-79
2023/01/29 13:20:29;;;;;;;10.95;8.52;;;6.60;79.30;;;;;;4999094;28;20030;-79
2023/01/29 13:23:14;;;;;;;10.70;8.57;;;6.60;79.30;;;;;;5041340;28;20063;-80
2023/01/29 13:25:40;;;;;;;12.95;10.48;;;6.60;79.20;;;;;;5076391;28;20081;-79
2023/01/29 13:28:16;;;;;;;11.05;8.98;;;6.60;79.10;;;;;;5059147;28;20036;-80
2023/01/29 13:30:42;;;;;;;11.10;9.05;;;6.60;79.10;;;;;;5076213;28;20081;-80
2023/01/29 13:33:22;;;;;;;12.60;10.15;;;6.60;79.10;;;;;;5094139;28;20024;-80
2023/01/29 13:35:56;;;;;;;11.15;8.93;;;6.70;79.20;;;;;;5076129;28;20039;-80
2023/01/29 13:38:34;;;;;;;11.90;9.32;;;6.70;79.10;;;;;;5066010;28;20574;-80
2023/01/29 13:41:07;;;;;;;11.98;9.77;;;6.70;79.10;;;;;;5053604;28;20492;-80
2023/01/29 13:43:36;;;;;;;11.57;9.38;;;6.70;79.10;;;;;;5052667;28;20036;-80
2023/01/29 13:46:10;;;;;;;11.98;9.98;;;6.70;79.10;;;;;;5053023;28;20044;-80
2023/01/29 13:48:42;;;;;;;11.82;9.02;;;6.70;79.10;;;;;;5052946;28;20547;-80
2023/01/29 13:51:19;;;;;;;12.13;9.82;;;6.70;79.10;;;;;;5053728;28;20035;-79